createdAt,value
2019-03-30T00:02:25.426Z,53.70
2019-03-30T00:04:58.770Z,53.80
2019-03-30T00:07:31.666Z,54.00
2019-03-30T00:10:05.075Z,54.30
2019-03-30T00:12:38.767Z,54.30
2019-03-30T00:15:11.610Z,54.50
2019-03-30T00:17:45.526Z,54.80
2019-03-30T00:20:19.806Z,54.30
2019-03-30T00:22:53.366Z,54.00
2019-03-30T00:25:26.446Z,54.00
2019-03-30T00:28:00.125Z,54.10
2019-03-30T00:30:34.006Z,53.70
2019-03-30T00:33:07.766Z,53.60
2019-03-30T00:35:40.866Z,53.40
2019-03-30T00:38:14.886Z,53.10
2019-03-30T00:40:48.006Z,53.10
2019-03-30T00:43:21.625Z,52.80
2019-03-30T00:45:55.425Z,52.70
2019-03-30T00:48:29.566Z,52.80
2019-03-30T00:51:03.633Z,53.10
2019-03-30T00:53:37.013Z,53.40
2019-03-30T00:56:10.093Z,53.20
2019-03-30T00:58:43.674Z,53.60
2019-03-30T01:01:16.713Z,53.90
2019-03-30T01:03:49.276Z,53.90
2019-03-30T01:06:22.453Z,54.00
2019-03-30T01:08:55.593Z,54.00
2019-03-30T01:11:29.115Z,54.10
2019-03-30T01:14:01.553Z,53.70
2019-03-30T01:16:35.514Z,53.60
2019-03-30T01:19:09.053Z,53.30
2019-03-30T01:21:42.313Z,53.50
2019-03-30T01:24:15.273Z,53.60
2019-03-30T01:26:49.192Z,53.50
2019-03-30T01:29:22.933Z,53.60
2019-03-30T01:31:56.475Z,53.50
2019-03-30T01:34:29.697Z,53.40
2019-03-30T01:37:03.276Z,53.50
2019-03-30T01:39:36.776Z,53.60
2019-03-30T01:42:10.756Z,53.70
2019-03-30T01:44:44.077Z,53.60
2019-03-30T01:47:17.836Z,53.60
2019-03-30T01:49:51.638Z,53.50
2019-03-30T01:52:25.296Z,53.60
2019-03-30T01:54:58.816Z,53.60
2019-03-30T01:57:32.079Z,53.50
2019-03-30T02:00:05.835Z,53.40
2019-03-30T02:02:38.855Z,53.40
2019-03-30T02:05:12.755Z,53.10
2019-03-30T02:07:46.314Z,53.00
2019-03-30T02:10:30.914Z,53.20
2019-03-30T02:13:05.435Z,52.20
2019-03-30T02:15:38.917Z,52.40
2019-03-30T02:18:11.955Z,52.30
2019-03-30T02:20:48.136Z,52.50
2019-03-30T02:23:21.657Z,52.90
2019-03-30T02:25:54.897Z,55.40
2019-03-30T02:28:28.475Z,58.10
2019-03-30T02:31:02.014Z,59.10
2019-03-30T02:33:34.476Z,59.60
2019-03-30T02:36:07.278Z,57.60
2019-03-30T02:38:40.935Z,58.30
2019-03-30T02:41:14.796Z,57.90
2019-03-30T02:43:47.897Z,57.40
2019-03-30T02:46:21.137Z,57.00
2019-03-30T02:48:55.255Z,56.20
2019-03-30T02:51:29.196Z,55.80
2019-03-30T02:54:02.401Z,55.20
2019-03-30T02:56:36.282Z,55.50
2019-03-30T02:59:09.550Z,55.10
2019-03-30T03:01:43.242Z,55.00
2019-03-30T03:04:16.741Z,54.90
2019-03-30T03:06:50.682Z,55.20
2019-03-30T03:09:23.763Z,56.00
2019-03-30T03:11:57.684Z,55.80
2019-03-30T03:14:30.541Z,55.90
2019-03-30T03:17:03.022Z,56.10
2019-03-30T03:19:36.363Z,56.30
2019-03-30T03:22:09.762Z,56.50
2019-03-30T03:24:43.454Z,56.30
2019-03-30T03:27:17.448Z,56.20
2019-03-30T03:29:50.823Z,55.40
2019-03-30T03:32:24.263Z,55.50
2019-03-30T03:34:57.723Z,55.30
2019-03-30T03:37:44.825Z,55.00
2019-03-30T03:40:07.421Z,55.20
2019-03-30T03:42:40.404Z,54.90
2019-03-30T03:45:13.841Z,55.20
2019-03-30T03:47:46.802Z,55.80
2019-03-30T03:50:48.782Z,55.00
2019-03-30T03:53:21.945Z,54.90
2019-03-30T03:55:55.762Z,55.10
2019-03-30T03:58:30.564Z,55.30
2019-03-30T04:01:05.205Z,55.40
2019-03-30T04:03:42.105Z,55.30
2019-03-30T04:06:15.601Z,55.50
2019-03-30T04:08:51.123Z,55.60
2019-03-30T04:11:25.062Z,56.20
2019-03-30T04:13:59.281Z,55.70
2019-03-30T04:16:32.843Z,55.60
2019-03-30T04:19:06.364Z,55.40
2019-03-30T04:21:44.328Z,55.50
2019-03-30T04:24:14.885Z,55.80
2019-03-30T04:26:47.602Z,55.80
2019-03-30T04:29:21.302Z,55.80
2019-03-30T04:31:54.982Z,55.80
2019-03-30T04:34:28.701Z,55.80
2019-03-30T04:37:02.403Z,55.90
2019-03-30T04:39:36.483Z,56.10
2019-03-30T04:42:10.203Z,56.10
2019-03-30T04:44:42.861Z,56.10
2019-03-30T04:47:17.281Z,56.20
2019-03-30T04:49:50.961Z,56.20
2019-03-30T04:52:25.121Z,56.00
2019-03-30T04:54:58.162Z,56.00
2019-03-30T04:57:31.662Z,56.10
2019-03-30T05:00:04.522Z,56.20
2019-03-30T05:02:37.683Z,56.20
2019-03-30T05:05:11.385Z,56.00
2019-03-30T05:07:44.561Z,56.10
2019-03-30T05:10:17.581Z,56.10
2019-03-30T05:12:50.868Z,56.20
2019-03-30T05:15:24.842Z,56.40
2019-03-30T05:17:58.685Z,57.20
2019-03-30T05:20:32.502Z,57.20
2019-03-30T05:23:06.765Z,57.50
2019-03-30T05:25:40.088Z,57.70
2019-03-30T05:28:13.942Z,58.30
2019-03-30T05:30:47.482Z,58.60
2019-03-30T05:33:21.101Z,58.70
2019-03-30T05:35:54.901Z,58.80
2019-03-30T05:38:28.662Z,58.50
2019-03-30T05:41:02.125Z,58.50
2019-03-30T05:43:35.941Z,58.30
2019-03-30T05:46:10.201Z,58.30
2019-03-30T05:48:43.581Z,58.30
2019-03-30T05:51:17.522Z,58.50
2019-03-30T05:53:51.722Z,58.60
2019-03-30T05:56:24.701Z,58.50
2019-03-30T05:58:58.082Z,58.50
2019-03-30T06:01:31.622Z,58.60
2019-03-30T06:04:04.842Z,58.60
2019-03-30T06:06:37.322Z,58.80
2019-03-30T06:09:11.942Z,58.80
2019-03-30T06:11:44.984Z,58.80
2019-03-30T06:14:18.262Z,58.90
2019-03-30T06:16:51.064Z,59.30
2019-03-30T06:19:25.374Z,59.60
2019-03-30T06:21:59.162Z,59.40
2019-03-30T06:24:32.722Z,59.40
2019-03-30T06:27:06.182Z,59.50
2019-03-30T06:29:38.802Z,59.60
2019-03-30T06:32:10.241Z,59.80
2019-03-30T06:34:43.321Z,60.10
2019-03-30T06:37:16.301Z,60.00
2019-03-30T06:39:49.182Z,59.70
2019-03-30T06:42:22.683Z,60.40
2019-03-30T06:44:56.102Z,59.80
2019-03-30T06:47:29.861Z,59.80
2019-03-30T06:50:03.823Z,59.60
2019-03-30T06:52:37.021Z,59.60
2019-03-30T06:55:12.001Z,59.20
2019-03-30T06:57:45.525Z,58.70
2019-03-30T07:00:19.900Z,57.80
2019-03-30T07:02:53.542Z,60.00
2019-03-30T07:05:27.163Z,60.50
2019-03-30T07:08:00.322Z,60.60
2019-03-30T07:10:38.267Z,60.80
2019-03-30T07:13:10.162Z,60.00
2019-03-30T07:15:47.127Z,58.90
2019-03-30T07:18:20.562Z,57.60
2019-03-30T07:20:54.003Z,58.40
2019-03-30T07:23:27.922Z,58.30
2019-03-30T07:26:01.582Z,58.30
2019-03-30T07:28:35.762Z,58.40
2019-03-30T07:31:09.367Z,58.10
2019-03-30T07:33:42.583Z,58.00
2019-03-30T07:36:16.301Z,57.80
2019-03-30T07:38:50.161Z,58.10
2019-03-30T07:41:23.122Z,58.10
2019-03-30T07:43:56.462Z,58.10
2019-03-30T07:46:29.221Z,57.70
2019-03-30T07:49:02.121Z,57.40
2019-03-30T07:51:35.642Z,56.90
2019-03-30T07:54:08.602Z,57.10
2019-03-30T07:56:41.941Z,56.30
2019-03-30T07:59:15.241Z,56.10
2019-03-30T08:01:47.761Z,55.50
2019-03-30T08:04:20.446Z,55.50
2019-03-30T08:06:54.642Z,55.20
2019-03-30T08:09:27.923Z,55.30
2019-03-30T08:12:00.692Z,54.20
2019-03-30T08:14:32.808Z,53.70
2019-03-30T08:17:06.462Z,53.20
2019-03-30T08:19:40.002Z,53.00
2019-03-30T08:22:13.862Z,53.10
2019-03-30T08:24:47.183Z,52.50
2019-03-30T08:27:19.903Z,52.80
2019-03-30T08:29:52.789Z,52.70
2019-03-30T08:32:26.082Z,53.00
2019-03-30T08:34:59.146Z,53.30
2019-03-30T08:37:32.601Z,53.00
2019-03-30T08:40:05.922Z,54.00
2019-03-30T08:42:39.561Z,52.30
2019-03-30T08:45:12.402Z,52.50
2019-03-30T08:47:44.661Z,52.90
2019-03-30T08:50:17.830Z,52.90
2019-03-30T08:52:51.431Z,52.60
2019-03-30T08:55:25.292Z,52.90
2019-03-30T08:57:58.613Z,53.50
2019-03-30T09:00:41.854Z,54.10
2019-03-30T09:03:14.955Z,54.70
2019-03-30T09:05:48.597Z,54.70
2019-03-30T09:08:22.335Z,55.10
2019-03-30T09:10:55.655Z,55.80
2019-03-30T09:13:28.593Z,55.80
2019-03-30T09:16:02.093Z,55.80
2019-03-30T09:18:35.494Z,54.80
2019-03-30T09:21:08.772Z,55.20
2019-03-30T09:23:41.853Z,56.40
2019-03-30T09:26:16.650Z,55.90
2019-03-30T09:28:48.972Z,55.70
2019-03-30T09:31:21.532Z,55.50
2019-03-30T09:33:54.573Z,56.00
2019-03-30T09:36:27.853Z,56.40
2019-03-30T09:39:00.526Z,56.50
2019-03-30T09:41:34.012Z,55.30
2019-03-30T09:44:06.732Z,53.60
2019-03-30T09:46:39.675Z,54.70
2019-03-30T09:49:13.632Z,54.80
2019-03-30T09:51:47.671Z,54.40
2019-03-30T09:54:24.008Z,53.10
2019-03-30T09:56:55.834Z,52.50
2019-03-30T09:59:29.019Z,52.50
2019-03-30T10:02:02.356Z,52.60
2019-03-30T10:04:35.757Z,52.40
2019-03-30T10:07:08.996Z,52.60
2019-03-30T10:09:42.329Z,52.80
2019-03-30T10:12:16.418Z,52.40
2019-03-30T10:14:50.477Z,52.60
2019-03-30T10:17:23.676Z,51.80
2019-03-30T10:20:04.400Z,50.90
2019-03-30T10:22:32.517Z,50.10
2019-03-30T10:25:06.137Z,49.80
2019-03-30T10:27:40.716Z,49.30
2019-03-30T10:30:14.536Z,49.00
2019-03-30T10:32:47.277Z,49.50
2019-03-30T10:35:20.737Z,49.40
2019-03-30T10:37:53.694Z,49.50
2019-03-30T10:40:27.314Z,49.20
2019-03-30T10:43:00.614Z,48.60
2019-03-30T10:45:33.535Z,49.20
2019-03-30T10:48:06.917Z,48.30
2019-03-30T10:50:40.436Z,48.10
2019-03-30T10:53:13.174Z,47.50
2019-03-30T10:55:46.896Z,47.70
2019-03-30T10:58:20.234Z,46.50
2019-03-30T11:00:53.549Z,46.10
2019-03-30T11:03:27.140Z,44.40
2019-03-30T11:06:00.965Z,44.80
2019-03-30T11:08:34.579Z,43.70
2019-03-30T11:11:08.112Z,43.90
2019-03-30T11:13:40.714Z,44.10
2019-03-30T11:16:13.229Z,42.80
2019-03-30T11:18:46.918Z,42.50
2019-03-30T11:21:20.511Z,42.40
2019-03-30T11:23:53.896Z,41.80
2019-03-30T11:26:27.989Z,42.20
2019-03-30T11:29:00.798Z,40.90
2019-03-30T11:31:33.709Z,41.00
2019-03-30T11:34:06.330Z,40.80
2019-03-30T11:36:39.957Z,40.90
2019-03-30T11:39:12.405Z,41.40
2019-03-30T11:41:45.337Z,41.80
2019-03-30T11:44:18.741Z,41.20
2019-03-30T11:46:52.606Z,41.60
2019-03-30T11:49:26.621Z,40.20
2019-03-30T11:52:00.281Z,39.90
2019-03-30T11:54:34.388Z,39.00
2019-03-30T11:57:07.203Z,38.70
2019-03-30T11:59:40.237Z,38.30
2019-03-30T12:02:26.978Z,38.90
2019-03-30T12:04:48.165Z,38.00
2019-03-30T12:07:21.868Z,38.20
2019-03-30T12:09:54.946Z,38.10
2019-03-30T12:12:28.469Z,37.60
2019-03-30T12:15:01.785Z,38.30
2019-03-30T12:17:35.449Z,37.80
2019-03-30T12:20:08.265Z,37.80
2019-03-30T12:22:41.314Z,37.30
2019-03-30T12:25:14.797Z,37.30
2019-03-30T12:27:47.755Z,37.50
2019-03-30T12:30:21.416Z,37.70
2019-03-30T12:32:55.173Z,37.00
2019-03-30T12:35:28.613Z,36.40
2019-03-30T12:38:02.356Z,36.30
2019-03-30T12:40:35.759Z,36.30
2019-03-30T12:43:09.376Z,36.10
2019-03-30T12:45:42.317Z,35.90
2019-03-30T12:48:15.379Z,35.50
2019-03-30T12:50:48.240Z,35.40
2019-03-30T12:53:21.361Z,34.00
2019-03-30T12:55:54.944Z,34.40
2019-03-30T12:58:28.199Z,33.60
2019-03-30T13:01:01.961Z,33.60
2019-03-30T13:03:35.380Z,33.50
2019-03-30T13:06:08.960Z,33.70
2019-03-30T13:08:42.480Z,32.10
2019-03-30T13:11:15.005Z,32.50
2019-03-30T13:13:47.934Z,32.40
2019-03-30T13:16:21.610Z,32.30
2019-03-30T13:18:54.410Z,31.30
2019-03-30T13:21:27.011Z,31.40
2019-03-30T13:24:00.253Z,31.20
2019-03-30T13:26:33.511Z,30.90
2019-03-30T13:29:07.371Z,30.40
2019-03-30T13:31:40.911Z,30.90
2019-03-30T13:34:14.410Z,30.70
2019-03-30T13:36:48.030Z,30.10
2019-03-30T13:39:21.895Z,30.70
2019-03-30T13:41:55.770Z,30.60
2019-03-30T13:44:29.071Z,30.50
2019-03-30T13:47:02.229Z,30.30
2019-03-30T13:49:35.304Z,31.10
2019-03-30T13:52:08.250Z,30.90
2019-03-30T13:54:41.970Z,31.70
2019-03-30T13:57:15.150Z,31.70
2019-03-30T13:59:48.890Z,32.30
2019-03-30T14:02:22.250Z,32.50
2019-03-30T14:04:55.453Z,32.40
2019-03-30T14:07:29.733Z,32.60
2019-03-30T14:10:03.130Z,32.40
2019-03-30T14:12:36.750Z,32.90
2019-03-30T14:15:11.071Z,33.10
2019-03-30T14:17:44.150Z,32.70
2019-03-30T14:20:16.930Z,33.00
2019-03-30T14:22:49.772Z,33.20
2019-03-30T14:25:22.631Z,33.50
2019-03-30T14:27:55.670Z,33.30
2019-03-30T14:30:29.730Z,33.20
2019-03-30T14:33:03.034Z,33.30
2019-03-30T14:35:36.771Z,33.00
2019-03-30T14:38:10.390Z,33.10
2019-03-30T14:40:44.750Z,33.30
2019-03-30T14:43:18.330Z,33.40
2019-03-30T14:45:52.272Z,33.50
2019-03-30T14:48:26.010Z,33.30
2019-03-30T14:50:59.445Z,33.20
2019-03-30T14:53:32.390Z,32.90
2019-03-30T14:56:05.410Z,32.70
2019-03-30T14:58:38.337Z,32.90
2019-03-30T15:01:11.928Z,32.80
2019-03-30T15:03:46.170Z,31.50
2019-03-30T15:06:19.790Z,31.10
2019-03-30T15:08:53.194Z,30.60
2019-03-30T15:11:26.629Z,30.80
2019-03-30T15:14:00.191Z,30.20
2019-03-30T15:16:33.649Z,30.20
2019-03-30T15:19:07.570Z,30.00
2019-03-30T15:21:41.850Z,30.10
2019-03-30T15:24:15.190Z,30.50
2019-03-30T15:26:59.345Z,30.30
2019-03-30T15:29:23.749Z,30.60
2019-03-30T15:31:56.990Z,30.50
2019-03-30T15:34:31.726Z,30.40
2019-03-30T15:37:07.471Z,31.20
2019-03-30T15:39:40.230Z,30.40
2019-03-30T15:42:13.151Z,30.60
2019-03-30T15:44:45.910Z,30.20
2019-03-30T15:47:19.310Z,30.10
2019-03-30T15:49:53.110Z,29.90
2019-03-30T15:52:26.351Z,29.70
2019-03-30T15:54:59.271Z,29.90
2019-03-30T15:57:32.110Z,29.80
2019-03-30T16:00:07.085Z,29.90
2019-03-30T16:02:40.890Z,29.20
2019-03-30T16:05:15.718Z,29.60
2019-03-30T16:07:48.730Z,29.40
2019-03-30T16:10:21.691Z,29.90
2019-03-30T16:12:54.791Z,30.00
2019-03-30T16:15:27.730Z,29.20
2019-03-30T16:18:01.410Z,28.70
2019-03-30T16:20:33.948Z,28.70
2019-03-30T16:23:06.811Z,28.90
2019-03-30T16:25:39.830Z,28.60
2019-03-30T16:28:13.690Z,28.60
2019-03-30T16:30:46.832Z,28.20
2019-03-30T16:33:20.790Z,28.30
2019-03-30T16:35:54.170Z,28.60
2019-03-30T16:38:28.091Z,28.70
2019-03-30T16:41:01.770Z,28.70
2019-03-30T16:43:35.771Z,28.80
2019-03-30T16:46:09.271Z,28.70
2019-03-30T16:48:42.971Z,28.90
2019-03-30T16:51:16.773Z,29.30
2019-03-30T16:53:51.069Z,29.20
2019-03-30T16:56:24.190Z,29.20
2019-03-30T16:58:58.169Z,29.00
2019-03-30T17:01:31.530Z,28.60
2019-03-30T17:04:04.971Z,28.40
2019-03-30T17:06:37.491Z,28.60
2019-03-30T17:09:11.351Z,29.00
2019-03-30T17:11:44.271Z,30.00
2019-03-30T17:14:17.369Z,31.90
2019-03-30T17:16:50.589Z,32.10
2019-03-30T17:19:24.489Z,34.20
2019-03-30T17:21:57.072Z,35.20
2019-03-30T17:24:30.650Z,35.80
2019-03-30T17:27:04.050Z,36.00
2019-03-30T17:29:37.709Z,36.50
2019-03-30T17:32:11.189Z,36.60
2019-03-30T17:34:45.052Z,36.30
2019-03-30T17:37:18.990Z,36.70
2019-03-30T17:39:52.569Z,36.90
2019-03-30T17:42:25.269Z,37.50
2019-03-30T17:44:58.371Z,37.80
2019-03-30T17:47:31.769Z,37.80
2019-03-30T17:50:05.170Z,38.10
2019-03-30T17:52:38.236Z,38.10
2019-03-30T17:55:11.209Z,38.00
2019-03-30T17:57:43.930Z,37.90
2019-03-30T18:00:19.510Z,38.20
2019-03-30T18:02:52.550Z,37.80
2019-03-30T18:05:25.430Z,37.40
2019-03-30T18:08:01.675Z,37.20
2019-03-30T18:10:33.910Z,36.60
2019-03-30T18:13:06.550Z,35.90
2019-03-30T18:15:40.183Z,35.80
2019-03-30T18:18:13.410Z,35.10
2019-03-30T18:20:47.012Z,34.60
2019-03-30T18:23:20.731Z,34.20
2019-03-30T18:25:53.950Z,34.10
2019-03-30T18:28:27.810Z,34.10
2019-03-30T18:31:01.470Z,34.00
2019-03-30T18:33:35.210Z,33.90
2019-03-30T18:36:08.465Z,33.70
2019-03-30T18:38:42.930Z,33.70
2019-03-30T18:41:17.010Z,33.80
2019-03-30T18:43:50.791Z,33.70
2019-03-30T18:46:23.610Z,33.60
2019-03-30T18:48:56.670Z,33.70
2019-03-30T18:51:31.331Z,33.80
2019-03-30T18:54:05.051Z,34.00
2019-03-30T18:56:38.157Z,34.10
2019-03-30T18:59:10.910Z,34.20
2019-03-30T19:01:45.030Z,34.40
2019-03-30T19:04:18.309Z,34.50
2019-03-30T19:06:51.910Z,34.60
2019-03-30T19:09:24.311Z,35.50
2019-03-30T19:11:57.431Z,34.90
2019-03-30T19:14:30.731Z,34.90
2019-03-30T19:17:04.010Z,35.10
2019-03-30T19:19:37.414Z,35.10
2019-03-30T19:22:10.170Z,35.10
2019-03-30T19:24:43.410Z,35.10
2019-03-30T19:27:16.794Z,35.30
2019-03-30T19:29:50.651Z,35.30
2019-03-30T19:32:23.990Z,35.60
2019-03-30T19:34:58.170Z,36.40
2019-03-30T19:37:32.370Z,36.60
2019-03-30T19:40:05.790Z,36.90
2019-03-30T19:42:38.755Z,36.60
2019-03-30T19:45:12.390Z,37.00
2019-03-30T19:47:45.930Z,37.10
2019-03-30T19:50:19.250Z,37.30
2019-03-30T19:52:52.190Z,37.40
2019-03-30T19:55:25.490Z,38.60
2019-03-30T19:57:58.349Z,38.90
2019-03-30T20:00:31.635Z,39.10
2019-03-30T20:03:04.211Z,39.30
2019-03-30T20:05:37.212Z,39.50
2019-03-30T20:08:12.500Z,39.90
2019-03-30T20:10:46.052Z,40.10
2019-03-30T20:13:19.101Z,40.30
2019-03-30T20:15:52.271Z,40.60
2019-03-30T20:18:25.910Z,40.70
2019-03-30T20:20:58.811Z,41.20
2019-03-30T20:23:31.751Z,41.20
2019-03-30T20:26:05.874Z,41.20
2019-03-30T20:28:39.709Z,41.70
2019-03-30T20:31:13.091Z,42.00
2019-03-30T20:33:45.850Z,42.10
2019-03-30T20:36:19.749Z,42.20
2019-03-30T20:38:53.370Z,42.50
2019-03-30T20:41:26.650Z,42.50
2019-03-30T20:44:00.210Z,42.60
2019-03-30T20:46:33.530Z,43.00
2019-03-30T20:49:07.191Z,43.50
2019-03-30T20:51:41.051Z,44.10
2019-03-30T20:54:14.793Z,44.40
2019-03-30T20:56:48.573Z,44.70
2019-03-30T20:59:21.910Z,45.10
2019-03-30T21:01:54.871Z,45.60
2019-03-30T21:04:27.870Z,46.10
2019-03-30T21:07:01.410Z,46.40
2019-03-30T21:09:34.974Z,46.70
2019-03-30T21:12:08.630Z,47.00
2019-03-30T21:14:41.530Z,47.00
2019-03-30T21:17:15.250Z,47.10
2019-03-30T21:19:48.890Z,47.10
2019-03-30T21:22:22.774Z,47.30
2019-03-30T21:24:56.712Z,46.90
2019-03-30T21:27:30.213Z,47.00
2019-03-30T21:30:04.411Z,47.40
2019-03-30T21:32:37.750Z,47.40
2019-03-30T21:35:11.750Z,47.40
2019-03-30T21:37:45.651Z,47.60
2019-03-30T21:40:19.311Z,47.70
2019-03-30T21:42:53.332Z,48.10
2019-03-30T21:45:26.792Z,48.70
2019-03-30T21:48:00.511Z,48.60
2019-03-30T21:50:34.252Z,48.70
2019-03-30T21:53:07.533Z,48.90
2019-03-30T21:55:40.410Z,49.20
2019-03-30T21:58:13.412Z,49.30
2019-03-30T22:00:46.335Z,49.20
2019-03-30T22:03:19.990Z,49.40
2019-03-30T22:05:53.252Z,49.40
2019-03-30T22:08:27.131Z,49.90
2019-03-30T22:11:01.051Z,49.60
2019-03-30T22:13:34.571Z,49.80
2019-03-30T22:16:08.392Z,50.00
2019-03-30T22:18:42.610Z,49.80
2019-03-30T22:21:16.576Z,49.70
2019-03-30T22:23:50.653Z,50.10
2019-03-30T22:26:24.973Z,50.20
2019-03-30T22:28:58.809Z,50.30
2019-03-30T22:31:31.869Z,50.40
2019-03-30T22:34:05.630Z,50.60
2019-03-30T22:36:39.029Z,50.80
2019-03-30T22:39:13.550Z,50.70
2019-03-30T22:41:47.270Z,50.90
2019-03-30T22:44:21.049Z,51.10
2019-03-30T22:46:54.789Z,51.50
2019-03-30T22:49:29.056Z,51.40
2019-03-30T22:52:03.129Z,51.60
2019-03-30T22:54:37.051Z,51.50
2019-03-30T22:57:10.329Z,51.10
2019-03-30T22:59:43.970Z,51.40
2019-03-30T23:02:17.612Z,51.60
2019-03-30T23:04:50.669Z,51.70
2019-03-30T23:07:24.310Z,51.90
2019-03-30T23:09:57.550Z,52.00
2019-03-30T23:12:30.650Z,52.10
2019-03-30T23:15:03.934Z,51.80
2019-03-30T23:17:36.730Z,52.10
2019-03-30T23:20:10.169Z,51.80
2019-03-30T23:22:44.410Z,51.70
2019-03-30T23:25:17.649Z,51.50
2019-03-30T23:27:51.195Z,51.80
2019-03-30T23:30:24.889Z,52.00
2019-03-30T23:32:59.050Z,52.30
2019-03-30T23:35:32.410Z,52.60
2019-03-30T23:38:05.709Z,52.50
2019-03-30T23:40:38.150Z,52.50
2019-03-30T23:43:11.350Z,52.40
2019-03-30T23:45:43.449Z,52.30
2019-03-30T23:48:17.290Z,52.30
2019-03-30T23:50:50.610Z,52.60
2019-03-30T23:53:24.470Z,52.70
2019-03-30T23:55:58.110Z,52.60
2019-03-30T23:58:30.754Z,52.50
